createdAt,value
2018-03-04T00:00:16.744Z,994.17
2018-03-04T00:01:16.705Z,994.17
2018-03-04T00:02:16.682Z,994.15
2018-03-04T00:03:16.653Z,994.20
2018-03-04T00:04:16.610Z,994.16
2018-03-04T00:05:16.582Z,994.21
2018-03-04T00:06:16.560Z,994.22
2018-03-04T00:07:16.522Z,994.23
2018-03-04T00:08:16.496Z,994.24
2018-03-04T00:09:16.463Z,994.23
2018-03-04T00:10:16.508Z,994.23
2018-03-04T00:11:16.400Z,994.25
2018-03-04T00:12:16.370Z,994.26
2018-03-04T00:13:16.351Z,994.23
2018-03-04T00:14:16.320Z,994.26
2018-03-04T00:15:16.279Z,994.22
2018-03-04T00:16:16.251Z,994.20
2018-03-04T00:17:16.218Z,994.21
2018-03-04T00:18:16.207Z,994.15
2018-03-04T00:19:16.171Z,994.21
2018-03-04T00:20:16.128Z,994.13
2018-03-04T00:21:16.101Z,994.16
2018-03-04T00:22:16.068Z,994.16
2018-03-04T00:23:16.052Z,994.17
2018-03-04T00:24:16.010Z,994.18
2018-03-04T00:25:15.992Z,994.18
2018-03-04T00:26:15.958Z,994.17
2018-03-04T00:27:15.930Z,994.18
2018-03-04T00:28:15.891Z,994.18
2018-03-04T00:29:15.859Z,994.12
2018-03-04T00:30:15.829Z,994.12
2018-03-04T00:31:15.801Z,994.12
2018-03-04T00:32:15.770Z,994.12
2018-03-04T00:33:15.738Z,994.09
2018-03-04T00:34:15.721Z,994.12
2018-03-04T00:35:15.679Z,994.10
2018-03-04T00:36:15.647Z,994.07
2018-03-04T00:37:15.618Z,994.07
2018-03-04T00:38:15.596Z,994.07
2018-03-04T00:39:15.557Z,994.06
2018-03-04T00:40:15.530Z,994.07
2018-03-04T00:41:15.497Z,994.06
2018-03-04T00:42:15.480Z,994.09
2018-03-04T00:43:15.454Z,994.10
2018-03-04T00:44:15.425Z,994.13
2018-03-04T00:45:15.376Z,994.12
2018-03-04T00:46:15.352Z,994.10
2018-03-04T00:47:15.316Z,994.06
2018-03-04T00:48:15.299Z,994.03
2018-03-04T00:49:15.258Z,994.03
2018-03-04T00:50:15.225Z,994.05
2018-03-04T00:51:15.212Z,994.05
2018-03-04T00:52:15.167Z,994.03
2018-03-04T00:53:15.139Z,994.03
2018-03-04T00:54:15.111Z,994.02
2018-03-04T00:55:15.077Z,994.03
2018-03-04T00:56:15.053Z,994.01
2018-03-04T00:57:15.018Z,994.04
2018-03-04T00:58:14.996Z,994.08
2018-03-04T00:59:14.967Z,994.08
2018-03-04T01:00:14.931Z,994.03
2018-03-04T01:01:14.902Z,994.07
2018-03-04T01:02:14.863Z,994.05
2018-03-04T01:03:14.835Z,994.02
2018-03-04T01:04:14.808Z,994.01
2018-03-04T01:05:14.778Z,994.08
2018-03-04T01:06:14.747Z,994.03
2018-03-04T01:07:14.716Z,994.04
2018-03-04T01:08:14.701Z,994.03
2018-03-04T01:09:14.658Z,994.04
2018-03-04T01:10:14.635Z,994.05
2018-03-04T01:11:14.606Z,994.10
2018-03-04T01:12:14.563Z,994.05
2018-03-04T01:13:14.547Z,994.07
2018-03-04T01:14:14.505Z,994.11
2018-03-04T01:15:14.485Z,994.12
2018-03-04T01:16:14.443Z,994.10
2018-03-04T01:17:14.427Z,994.13
2018-03-04T01:18:14.395Z,994.11
2018-03-04T01:19:14.367Z,994.09
2018-03-04T01:20:14.324Z,994.10
2018-03-04T01:21:14.295Z,994.07
2018-03-04T01:22:14.263Z,994.08
2018-03-04T01:23:14.246Z,994.09
2018-03-04T01:24:14.216Z,994.08
2018-03-04T01:25:14.184Z,994.09
2018-03-04T01:26:14.144Z,994.05
2018-03-04T01:27:14.128Z,994.04
2018-03-04T01:28:14.086Z,994.05
2018-03-04T01:29:14.053Z,994.03
2018-03-04T01:30:14.042Z,993.98
2018-03-04T01:31:13.991Z,993.97
2018-03-04T01:32:13.974Z,993.97
2018-03-04T01:33:13.930Z,994.00
2018-03-04T01:34:13.902Z,993.96
2018-03-04T01:35:13.873Z,993.95
2018-03-04T01:36:13.853Z,993.93
2018-03-04T01:37:13.827Z,993.93
2018-03-04T01:38:13.782Z,993.91
2018-03-04T01:39:13.752Z,993.93
2018-03-04T01:40:13.723Z,993.97
2018-03-04T01:41:13.692Z,993.96
2018-03-04T01:42:13.662Z,993.90
2018-03-04T01:43:13.644Z,993.93
2018-03-04T01:44:13.604Z,993.89
2018-03-04T01:45:13.578Z,993.86
2018-03-04T01:46:13.543Z,993.88
2018-03-04T01:47:13.516Z,993.86
2018-03-04T01:48:13.494Z,993.90
2018-03-04T01:49:13.459Z,993.86
2018-03-04T01:50:13.435Z,993.85
2018-03-04T01:51:13.411Z,993.85
2018-03-04T01:52:13.362Z,993.83
2018-03-04T01:53:13.336Z,993.82
2018-03-04T01:54:13.306Z,993.79
2018-03-04T01:55:13.309Z,993.81
2018-03-04T01:56:13.240Z,993.79
2018-03-04T01:57:13.224Z,993.82
2018-03-04T01:58:13.196Z,993.83
2018-03-04T01:59:13.164Z,993.84
2018-03-04T02:00:13.124Z,993.81
2018-03-04T02:01:13.092Z,993.81
2018-03-04T02:02:13.063Z,993.87
2018-03-04T02:03:13.042Z,993.84
2018-03-04T02:04:13.009Z,993.83
2018-03-04T02:05:12.970Z,993.82
2018-03-04T02:06:12.943Z,993.84
2018-03-04T02:07:12.910Z,993.78
2018-03-04T02:08:12.894Z,993.84
2018-03-04T02:09:12.864Z,993.82
2018-03-04T02:10:12.820Z,993.80
2018-03-04T02:11:12.803Z,993.81
2018-03-04T02:12:12.773Z,993.82
2018-03-04T02:13:12.734Z,993.79
2018-03-04T02:14:12.702Z,993.77
2018-03-04T02:15:12.681Z,993.73
2018-03-04T02:16:12.656Z,993.72
2018-03-04T02:17:12.613Z,993.71
2018-03-04T02:18:12.580Z,993.73
2018-03-04T02:19:12.552Z,993.68
2018-03-04T02:20:12.534Z,993.65
2018-03-04T02:21:12.490Z,993.67
2018-03-04T02:22:12.458Z,993.65
2018-03-04T02:23:12.429Z,993.68
2018-03-04T02:24:15.327Z,993.69
2018-03-04T02:25:12.366Z,993.64
2018-03-04T02:26:12.337Z,993.67
2018-03-04T02:27:12.304Z,993.63
2018-03-04T02:28:12.273Z,993.64
2018-03-04T02:29:12.245Z,993.65
2018-03-04T02:30:12.220Z,993.61
2018-03-04T02:31:12.185Z,993.62
2018-03-04T02:32:12.166Z,993.59
2018-03-04T02:33:12.156Z,993.63
2018-03-04T02:34:12.097Z,993.65
2018-03-04T02:35:12.065Z,993.59
2018-03-04T02:36:12.033Z,993.60
2018-03-04T02:37:12.004Z,993.62
2018-03-04T02:38:11.981Z,993.59
2018-03-04T02:39:11.945Z,993.64
2018-03-04T02:40:11.920Z,993.63
2018-03-04T02:41:11.884Z,993.58
2018-03-04T02:42:11.850Z,993.60
2018-03-04T02:43:11.825Z,993.57
2018-03-04T02:44:11.795Z,993.58
2018-03-04T02:45:11.763Z,993.56
2018-03-04T02:46:11.730Z,993.53
2018-03-04T02:47:11.707Z,993.54
2018-03-04T02:48:11.681Z,993.53
2018-03-04T02:49:11.639Z,993.51
2018-03-04T02:50:11.617Z,993.56
2018-03-04T02:51:11.584Z,993.50
2018-03-04T02:52:11.553Z,993.54
2018-03-04T02:53:11.520Z,993.56
2018-03-04T02:54:11.494Z,993.50
2018-03-04T02:55:11.463Z,993.52
2018-03-04T02:56:11.432Z,993.54
2018-03-04T02:57:11.406Z,993.57
2018-03-04T02:58:11.376Z,993.52
2018-03-04T02:59:11.343Z,993.54
2018-03-04T03:00:11.314Z,993.50
2018-03-04T03:01:11.283Z,993.54
2018-03-04T03:02:11.255Z,993.49
2018-03-04T03:03:11.226Z,993.52
2018-03-04T03:04:11.199Z,993.52
2018-03-04T03:05:11.169Z,993.53
2018-03-04T03:06:11.135Z,993.51
2018-03-04T03:07:11.145Z,993.51
2018-03-04T03:08:11.078Z,993.51
2018-03-04T03:09:11.047Z,993.50
2018-03-04T03:10:11.022Z,993.53
2018-03-04T03:11:10.988Z,993.50
2018-03-04T03:12:10.961Z,993.47
2018-03-04T03:13:10.924Z,993.44
2018-03-04T03:14:10.901Z,993.42
2018-03-04T03:15:10.865Z,993.44
2018-03-04T03:16:10.838Z,993.37
2018-03-04T03:17:10.804Z,993.38
2018-03-04T03:18:10.781Z,993.38
2018-03-04T03:19:10.749Z,993.37
2018-03-04T03:20:10.717Z,993.36
2018-03-04T03:21:10.690Z,993.35
2018-03-04T03:22:10.660Z,993.37
2018-03-04T03:23:10.632Z,993.35
2018-03-04T03:24:10.600Z,993.34
2018-03-04T03:25:10.574Z,993.33
2018-03-04T03:26:10.544Z,993.30
2018-03-04T03:27:10.513Z,993.34
2018-03-04T03:28:10.485Z,993.32
2018-03-04T03:29:10.455Z,993.29
2018-03-04T03:30:10.427Z,993.34
2018-03-04T03:31:10.396Z,993.31
2018-03-04T03:32:10.360Z,993.32
2018-03-04T03:33:10.332Z,993.27
2018-03-04T03:34:10.302Z,993.31
2018-03-04T03:35:10.277Z,993.32
2018-03-04T03:36:10.250Z,993.33
2018-03-04T03:37:10.215Z,993.33
2018-03-04T03:38:10.189Z,993.31
2018-03-04T03:39:10.160Z,993.29
2018-03-04T03:40:10.128Z,993.25
2018-03-04T03:41:10.097Z,993.28
2018-03-04T03:42:10.068Z,993.23
2018-03-04T03:43:10.038Z,993.25
2018-03-04T03:44:10.015Z,993.20
2018-03-04T03:45:09.979Z,993.15
2018-03-04T03:46:09.954Z,993.18
2018-03-04T03:47:09.921Z,993.18
2018-03-04T03:48:09.888Z,993.16
2018-03-04T03:49:09.869Z,993.19
2018-03-04T03:50:09.833Z,993.19
2018-03-04T03:51:09.802Z,993.21
2018-03-04T03:52:09.775Z,993.20
2018-03-04T03:53:09.743Z,993.15
2018-03-04T03:54:09.714Z,993.13
2018-03-04T03:55:09.685Z,993.17
2018-03-04T03:56:09.658Z,993.15
2018-03-04T03:57:09.628Z,993.13
2018-03-04T03:58:09.597Z,993.13
2018-03-04T03:59:09.568Z,993.12
2018-03-04T04:00:09.534Z,993.11
2018-03-04T04:01:09.526Z,993.14
2018-03-04T04:02:09.474Z,993.15
2018-03-04T04:03:09.451Z,993.15
2018-03-04T04:04:09.420Z,993.18
2018-03-04T04:05:09.390Z,993.17
2018-03-04T04:06:09.368Z,993.13
2018-03-04T04:07:09.330Z,993.11
2018-03-04T04:08:09.302Z,993.07
2018-03-04T04:09:09.272Z,993.04
2018-03-04T04:10:09.241Z,993.06
2018-03-04T04:11:09.215Z,993.04
2018-03-04T04:12:09.184Z,993.02
2018-03-04T04:13:09.171Z,992.97
2018-03-04T04:14:09.125Z,992.98
2018-03-04T04:15:09.101Z,992.96
2018-03-04T04:16:09.062Z,992.91
2018-03-04T04:17:09.039Z,992.91
2018-03-04T04:18:09.021Z,992.92
2018-03-04T04:19:08.975Z,992.87
2018-03-04T04:20:08.952Z,992.89
2018-03-04T04:21:08.921Z,992.89
2018-03-04T04:22:08.888Z,992.83
2018-03-04T04:23:08.876Z,992.85
2018-03-04T04:24:08.834Z,992.82
2018-03-04T04:25:08.803Z,992.85
2018-03-04T04:26:08.777Z,992.90
2018-03-04T04:27:08.745Z,992.90
2018-03-04T04:28:08.716Z,992.93
2018-03-04T04:29:08.686Z,992.90
2018-03-04T04:30:08.658Z,992.91
2018-03-04T04:31:08.631Z,992.87
2018-03-04T04:32:08.605Z,992.84
2018-03-04T04:33:08.563Z,992.78
2018-03-04T04:34:08.542Z,992.77
2018-03-04T04:35:08.514Z,992.75
2018-03-04T04:36:08.492Z,992.81
2018-03-04T04:37:08.459Z,992.77
2018-03-04T04:38:08.419Z,992.74
2018-03-04T04:39:08.390Z,992.71
2018-03-04T04:40:08.369Z,992.71
2018-03-04T04:41:08.334Z,992.70
2018-03-04T04:42:08.353Z,992.65
2018-03-04T04:43:08.278Z,992.66
2018-03-04T04:44:08.247Z,992.64
2018-03-04T04:45:08.217Z,992.61
2018-03-04T04:46:08.192Z,992.63
2018-03-04T04:47:08.160Z,992.61
2018-03-04T04:48:08.135Z,992.60
2018-03-04T04:49:08.107Z,992.58
2018-03-04T04:50:08.068Z,992.53
2018-03-04T04:51:08.043Z,992.60
2018-03-04T04:52:08.014Z,992.57
2018-03-04T04:53:07.976Z,992.54
2018-03-04T04:54:07.952Z,992.55
2018-03-04T04:55:07.924Z,992.51
2018-03-04T04:56:07.890Z,992.50
2018-03-04T04:57:07.872Z,992.53
2018-03-04T04:58:07.836Z,992.52
2018-03-04T04:59:07.806Z,992.49
2018-03-04T05:00:07.778Z,992.56
2018-03-04T05:01:07.750Z,992.55
2018-03-04T05:02:07.719Z,992.57
2018-03-04T05:03:07.694Z,992.53
2018-03-04T05:04:07.660Z,992.54
2018-03-04T05:05:07.631Z,992.56
2018-03-04T05:06:07.602Z,992.57
2018-03-04T05:07:07.568Z,992.55
2018-03-04T05:08:07.542Z,992.54
2018-03-04T05:09:07.517Z,992.49
2018-03-04T05:10:07.498Z,992.54
2018-03-04T05:11:07.457Z,992.54
2018-03-04T05:12:07.425Z,992.50
2018-03-04T05:13:07.392Z,992.52
2018-03-04T05:14:07.370Z,992.48
2018-03-04T05:15:07.336Z,992.47
2018-03-04T05:16:07.305Z,992.45
2018-03-04T05:17:07.277Z,992.52
2018-03-04T05:18:07.249Z,992.50
2018-03-04T05:19:07.217Z,992.50
2018-03-04T05:20:07.194Z,992.51
2018-03-04T05:21:07.159Z,992.51
2018-03-04T05:22:07.130Z,992.47
2018-03-04T05:23:07.100Z,992.52
2018-03-04T05:24:07.065Z,992.46
2018-03-04T05:25:07.082Z,992.51
2018-03-04T05:26:07.011Z,992.45
2018-03-04T05:27:06.981Z,992.41
2018-03-04T05:28:06.966Z,992.42
2018-03-04T05:29:06.923Z,992.48
2018-03-04T05:30:06.890Z,992.49
2018-03-04T05:31:06.863Z,992.49
2018-03-04T05:32:06.833Z,992.52
2018-03-04T05:33:06.800Z,992.52
2018-03-04T05:34:06.775Z,992.52
2018-03-04T05:35:06.744Z,992.53
2018-03-04T05:36:06.713Z,992.57
2018-03-04T05:37:06.684Z,992.56
2018-03-04T05:38:06.653Z,992.54
2018-03-04T05:39:06.625Z,992.52
2018-03-04T05:40:06.613Z,992.52
2018-03-04T05:41:06.564Z,992.51
2018-03-04T05:42:06.553Z,992.52
2018-03-04T05:43:06.506Z,992.46
2018-03-04T05:44:06.474Z,992.46
2018-03-04T05:45:06.446Z,992.44
2018-03-04T05:46:06.418Z,992.42
2018-03-04T05:47:06.387Z,992.42
2018-03-04T05:48:06.359Z,992.38
2018-03-04T05:49:06.327Z,992.38
2018-03-04T05:50:06.300Z,992.37
2018-03-04T05:51:06.269Z,992.43
2018-03-04T05:52:06.254Z,992.42
2018-03-04T05:53:06.208Z,992.41
2018-03-04T05:54:06.188Z,992.46
2018-03-04T05:55:06.149Z,992.48
2018-03-04T05:56:06.121Z,992.45
2018-03-04T05:57:06.092Z,992.47
2018-03-04T05:58:06.060Z,992.45
2018-03-04T05:59:06.037Z,992.42
2018-03-04T06:00:06.002Z,992.47
2018-03-04T06:01:05.979Z,992.50
2018-03-04T06:02:05.943Z,992.47
2018-03-04T06:03:05.915Z,992.51
2018-03-04T06:04:05.879Z,992.54
2018-03-04T06:05:05.852Z,992.52
2018-03-04T06:06:05.819Z,992.56
2018-03-04T06:07:05.799Z,992.53
2018-03-04T06:08:05.765Z,992.52
2018-03-04T06:09:05.728Z,992.54
2018-03-04T06:10:05.707Z,992.51
2018-03-04T06:11:05.675Z,992.54
2018-03-04T06:12:05.643Z,992.56
2018-03-04T06:13:05.626Z,992.57
2018-03-04T06:14:05.588Z,992.57
2018-03-04T06:15:05.555Z,992.57
2018-03-04T06:16:05.527Z,992.55
2018-03-04T06:17:05.498Z,992.57
2018-03-04T06:18:05.469Z,992.56
2018-03-04T06:19:05.441Z,992.57
2018-03-04T06:20:05.413Z,992.57
2018-03-04T06:21:05.380Z,992.62
2018-03-04T06:22:05.364Z,992.65
2018-03-04T06:23:05.326Z,992.68
2018-03-04T06:24:05.305Z,992.64
2018-03-04T06:25:05.263Z,992.71
2018-03-04T06:26:05.228Z,992.66
2018-03-04T06:27:05.211Z,992.67
2018-03-04T06:28:05.182Z,992.68
2018-03-04T06:29:05.141Z,992.71
2018-03-04T06:30:05.114Z,992.69
2018-03-04T06:31:05.087Z,992.68
2018-03-04T06:32:05.066Z,992.64
2018-03-04T06:33:05.035Z,992.66
2018-03-04T06:34:04.996Z,992.62
2018-03-04T06:35:04.966Z,992.63
2018-03-04T06:36:04.939Z,992.59
2018-03-04T06:37:04.905Z,992.61
2018-03-04T06:38:04.873Z,992.59
2018-03-04T06:39:04.850Z,992.61
2018-03-04T06:40:04.814Z,992.65
2018-03-04T06:41:04.793Z,992.61
2018-03-04T06:42:04.759Z,992.61
2018-03-04T06:43:04.726Z,992.62
2018-03-04T06:44:04.727Z,992.61
2018-03-04T06:45:04.673Z,992.66
2018-03-04T06:46:04.642Z,992.68
2018-03-04T06:47:04.612Z,992.68
2018-03-04T06:48:04.584Z,992.67
2018-03-04T06:49:04.557Z,992.71
2018-03-04T06:50:04.522Z,992.67
2018-03-04T06:51:04.495Z,992.71
2018-03-04T06:52:04.467Z,992.73
2018-03-04T06:53:04.437Z,992.77
2018-03-04T06:54:04.408Z,992.78
2018-03-04T06:55:04.379Z,992.75
2018-03-04T06:56:04.350Z,992.76
2018-03-04T06:57:04.320Z,992.75
2018-03-04T06:58:04.290Z,992.78
2018-03-04T06:59:04.283Z,992.75
2018-03-04T07:00:04.235Z,992.75
2018-03-04T07:01:04.292Z,992.78
2018-03-04T07:02:04.176Z,992.78
2018-03-04T07:03:04.148Z,992.73
2018-03-04T07:04:04.115Z,992.71
2018-03-04T07:05:04.089Z,992.67
2018-03-04T07:06:04.059Z,992.71
2018-03-04T07:07:04.034Z,992.75
2018-03-04T07:08:04.004Z,992.77
2018-03-04T07:09:03.965Z,992.77
2018-03-04T07:10:03.946Z,992.82
2018-03-04T07:11:03.959Z,992.79
2018-03-04T07:12:03.994Z,992.78
2018-03-04T07:13:03.910Z,992.78
2018-03-04T07:14:03.889Z,992.76
2018-03-04T07:15:03.801Z,992.75
2018-03-04T07:16:03.772Z,992.74
2018-03-04T07:17:03.740Z,992.80
2018-03-04T07:18:03.712Z,992.74
2018-03-04T07:19:03.683Z,992.78
2018-03-04T07:20:03.661Z,992.78
2018-03-04T07:21:03.630Z,992.78
2018-03-04T07:22:03.597Z,992.80
2018-03-04T07:23:03.565Z,992.84
2018-03-04T07:24:03.537Z,992.87
2018-03-04T07:25:03.511Z,992.82
2018-03-04T07:26:03.479Z,992.83
2018-03-04T07:27:03.454Z,992.84
2018-03-04T07:28:03.425Z,992.82
2018-03-04T07:29:03.421Z,992.81
2018-03-04T07:30:03.369Z,992.79
2018-03-04T07:31:03.338Z,992.81
2018-03-04T07:32:03.311Z,992.84
2018-03-04T07:33:03.284Z,992.85
2018-03-04T07:34:03.254Z,992.85
2018-03-04T07:35:03.238Z,992.91
2018-03-04T07:36:03.197Z,992.91
2018-03-04T07:37:03.172Z,992.87
2018-03-04T07:38:03.155Z,992.84
2018-03-04T07:39:03.112Z,992.86
2018-03-04T07:40:03.088Z,992.87
2018-03-04T07:41:03.061Z,992.83
2018-03-04T07:42:03.028Z,992.84
2018-03-04T07:43:02.996Z,992.87
2018-03-04T07:44:02.974Z,992.93
2018-03-04T07:45:02.946Z,992.91
2018-03-04T07:46:02.916Z,992.93
2018-03-04T07:47:02.881Z,992.91
2018-03-04T07:48:02.865Z,992.96
2018-03-04T07:49:02.828Z,992.90
2018-03-04T07:50:02.799Z,992.95
2018-03-04T07:51:02.769Z,992.95
2018-03-04T07:52:02.747Z,992.91
2018-03-04T07:53:02.719Z,992.91
2018-03-04T07:54:02.685Z,992.86
2018-03-04T07:55:02.654Z,992.86
2018-03-04T07:56:02.632Z,992.85
2018-03-04T07:57:02.600Z,992.89
2018-03-04T07:58:02.575Z,992.92
2018-03-04T07:59:02.563Z,992.89
2018-03-04T08:00:02.534Z,992.87
2018-03-04T08:01:02.488Z,992.91
2018-03-04T08:02:02.460Z,992.93
2018-03-04T08:03:02.433Z,992.92
2018-03-04T08:04:02.405Z,992.96
2018-03-04T08:05:02.378Z,992.96
2018-03-04T08:06:02.351Z,992.89
2018-03-04T08:07:02.322Z,992.88
2018-03-04T08:08:02.293Z,992.93
2018-03-04T08:09:02.264Z,992.93
2018-03-04T08:10:02.239Z,992.98
2018-03-04T08:11:02.208Z,992.93
2018-03-04T08:12:02.176Z,992.95
2018-03-04T08:13:02.152Z,992.92
2018-03-04T08:14:02.126Z,992.90
2018-03-04T08:15:02.149Z,992.94
2018-03-04T08:16:02.080Z,992.92
2018-03-04T08:17:02.038Z,992.90
2018-03-04T08:18:02.015Z,992.91
2018-03-04T08:19:01.987Z,992.90
2018-03-04T08:20:01.955Z,992.89
2018-03-04T08:21:01.928Z,992.89
2018-03-04T08:22:01.901Z,992.93
2018-03-04T08:23:01.871Z,992.91
2018-03-04T08:24:01.858Z,992.90
2018-03-04T08:25:01.817Z,992.96
2018-03-04T08:26:01.788Z,992.89
2018-03-04T08:27:01.767Z,992.92
2018-03-04T08:28:01.734Z,992.91
2018-03-04T08:29:01.709Z,992.88
2018-03-04T08:30:01.681Z,992.85
2018-03-04T08:31:01.651Z,992.88
2018-03-04T08:32:01.622Z,992.87
2018-03-04T08:33:01.596Z,992.88
2018-03-04T08:34:01.565Z,992.88
2018-03-04T08:35:01.544Z,992.85
2018-03-04T08:36:01.514Z,992.89
2018-03-04T08:37:01.486Z,992.93
2018-03-04T08:38:01.465Z,992.93
2018-03-04T08:39:01.431Z,992.89
2018-03-04T08:40:01.415Z,992.92
2018-03-04T08:41:01.391Z,992.94
2018-03-04T08:42:01.339Z,992.97
2018-03-04T08:43:01.318Z,992.94
2018-03-04T08:44:01.301Z,992.98
2018-03-04T08:45:01.258Z,992.95
2018-03-04T08:46:01.235Z,993.01
2018-03-04T08:47:01.224Z,993.03
2018-03-04T08:48:01.198Z,992.99
2018-03-04T08:49:01.152Z,993.00
2018-03-04T08:50:01.127Z,993.05
2018-03-04T08:51:01.100Z,993.00
2018-03-04T08:52:01.075Z,993.01
2018-03-04T08:53:01.088Z,993.02
2018-03-04T08:54:01.025Z,993.02
2018-03-04T08:55:01.069Z,993.01
2018-03-04T08:56:01.002Z,992.98
2018-03-04T08:57:00.929Z,993.00
2018-03-04T08:58:00.907Z,992.97
2018-03-04T08:59:00.877Z,992.97
2018-03-04T09:00:00.850Z,992.99
2018-03-04T09:01:00.830Z,992.95
2018-03-04T09:02:00.797Z,992.96
2018-03-04T09:03:00.764Z,992.95
2018-03-04T09:04:00.752Z,992.99
2018-03-04T09:05:00.715Z,993.02
2018-03-04T09:06:00.691Z,993.02
2018-03-04T09:07:00.660Z,993.05
2018-03-04T09:08:00.640Z,993.05
2018-03-04T09:09:00.608Z,993.05
2018-03-04T09:10:00.579Z,993.05
2018-03-04T09:11:00.569Z,993.03
2018-03-04T09:12:00.522Z,993.09
2018-03-04T09:13:00.496Z,993.08
2018-03-04T09:14:00.488Z,993.07
2018-03-04T09:15:00.438Z,993.08
2018-03-04T09:16:00.522Z,993.11
2018-03-04T09:17:00.397Z,993.06
2018-03-04T09:18:00.381Z,993.03
2018-03-04T09:19:00.354Z,993.03
2018-03-04T09:20:00.314Z,993.07
2018-03-04T09:21:00.272Z,993.00
2018-03-04T09:22:00.258Z,993.00
2018-03-04T09:23:00.233Z,993.01
2018-03-04T09:24:00.290Z,993.01
2018-03-04T09:25:00.172Z,993.01
2018-03-04T09:26:00.147Z,993.04
2018-03-04T09:27:00.118Z,993.00
2018-03-04T09:28:00.091Z,993.09
2018-03-04T09:29:00.066Z,993.08
2018-03-04T09:30:00.039Z,993.15
2018-03-04T09:31:00.006Z,993.12
2018-03-04T09:31:59.987Z,993.13
2018-03-04T09:32:59.954Z,993.12
2018-03-04T09:33:59.929Z,993.04
2018-03-04T09:34:59.902Z,993.07
2018-03-04T09:35:59.874Z,993.05
2018-03-04T09:36:59.888Z,993.07
2018-03-04T09:37:59.890Z,993.05
2018-03-04T09:38:59.842Z,993.06
2018-03-04T09:39:59.801Z,993.02
2018-03-04T09:40:59.810Z,993.03
2018-03-04T09:41:59.708Z,993.01
2018-03-04T09:42:59.689Z,992.98
2018-03-04T09:43:59.661Z,993.04
2018-03-04T09:44:59.634Z,993.01
2018-03-04T09:45:59.611Z,993.00
2018-03-04T09:46:59.582Z,993.02
2018-03-04T09:47:59.555Z,993.04
2018-03-04T09:48:59.529Z,993.05
2018-03-04T09:49:59.504Z,993.11
2018-03-04T09:50:59.474Z,993.05
2018-03-04T09:51:59.451Z,993.07
2018-03-04T09:52:59.423Z,993.06
2018-03-04T09:53:59.396Z,992.97
2018-03-04T09:54:59.372Z,992.97
2018-03-04T09:55:59.347Z,992.96
2018-03-04T09:56:59.323Z,992.96
2018-03-04T09:57:59.293Z,992.93
2018-03-04T09:58:59.292Z,992.96
2018-03-04T09:59:59.247Z,992.95
2018-03-04T10:00:59.214Z,992.90
2018-03-04T10:01:59.197Z,992.92
2018-03-04T10:02:59.171Z,992.92
2018-03-04T10:03:59.146Z,992.90
2018-03-04T10:04:59.117Z,992.85
2018-03-04T10:05:59.097Z,992.90
2018-03-04T10:06:59.070Z,992.89
2018-03-04T10:07:59.142Z,992.87
2018-03-04T10:08:59.019Z,992.86
2018-03-04T10:09:59.003Z,992.89
2018-03-04T10:10:58.975Z,992.93
2018-03-04T10:11:58.968Z,992.90
2018-03-04T10:12:58.921Z,992.85
2018-03-04T10:13:58.907Z,992.88
2018-03-04T10:14:58.882Z,992.80
2018-03-04T10:15:58.848Z,992.78
2018-03-04T10:16:58.817Z,992.79
2018-03-04T10:17:58.798Z,992.72
2018-03-04T10:18:58.773Z,992.75
2018-03-04T10:19:58.751Z,992.74
2018-03-04T10:20:58.725Z,992.78
2018-03-04T10:21:58.700Z,992.77
2018-03-04T10:22:58.678Z,992.77
2018-03-04T10:23:58.668Z,992.78
2018-03-04T10:24:58.637Z,992.76
2018-03-04T10:25:58.602Z,992.75
2018-03-04T10:26:58.582Z,992.73
2018-03-04T10:27:58.560Z,992.76
2018-03-04T10:28:58.531Z,992.75
2018-03-04T10:29:58.509Z,992.78
2018-03-04T10:30:58.484Z,992.79
2018-03-04T10:31:58.491Z,992.77
2018-03-04T10:32:58.434Z,992.69
2018-03-04T10:33:58.406Z,992.76
2018-03-04T10:34:58.385Z,992.75
2018-03-04T10:35:58.357Z,992.73
2018-03-04T10:36:58.330Z,992.73
2018-03-04T10:37:58.310Z,992.76
2018-03-04T10:38:58.285Z,992.69
2018-03-04T10:39:58.271Z,992.70
2018-03-04T10:40:58.240Z,992.73
2018-03-04T10:41:58.258Z,992.74
2018-03-04T10:42:58.193Z,992.80
2018-03-04T10:43:58.167Z,992.91
2018-03-04T10:44:58.144Z,992.87
2018-03-04T10:45:58.140Z,992.95
2018-03-04T10:46:58.101Z,992.94
2018-03-04T10:47:58.074Z,992.82
2018-03-04T10:48:58.054Z,992.84
2018-03-04T10:49:58.067Z,992.89
2018-03-04T10:50:58.013Z,992.97
2018-03-04T10:51:58.000Z,992.97
2018-03-04T10:52:57.966Z,992.97
2018-03-04T10:53:57.945Z,992.85
2018-03-04T10:54:57.925Z,992.86
2018-03-04T10:55:57.901Z,993.00
2018-03-04T10:56:57.882Z,993.06
2018-03-04T10:57:57.859Z,993.15
2018-03-04T10:58:57.840Z,993.11
2018-03-04T10:59:57.821Z,993.14
2018-03-04T11:00:57.809Z,993.21
2018-03-04T11:01:57.782Z,993.20
2018-03-04T11:02:57.776Z,993.18
2018-03-04T11:03:57.790Z,993.18
2018-03-04T11:04:57.726Z,993.16
2018-03-04T11:05:57.709Z,993.22
2018-03-04T11:06:57.692Z,993.17
2018-03-04T11:07:57.673Z,993.18
2018-03-04T11:08:57.654Z,993.11
2018-03-04T11:09:57.643Z,993.10
2018-03-04T11:10:57.623Z,993.05
2018-03-04T11:11:57.605Z,992.98
2018-03-04T11:12:57.588Z,993.00
2018-03-04T11:13:57.579Z,992.97
2018-03-04T11:14:57.557Z,992.72
2018-03-04T11:15:57.534Z,992.96
2018-03-04T11:16:57.529Z,993.03
2018-03-04T11:17:57.506Z,992.92
2018-03-04T11:18:57.495Z,992.96
2018-03-04T11:19:57.488Z,993.08
2018-03-04T11:20:57.464Z,993.01
2018-03-04T11:21:57.444Z,993.00
2018-03-04T11:22:57.420Z,992.88
2018-03-04T11:23:57.410Z,992.85
2018-03-04T11:24:57.389Z,992.78
2018-03-04T11:25:57.384Z,992.78
2018-03-04T11:26:57.435Z,992.78
2018-03-04T11:27:57.342Z,992.75
2018-03-04T11:28:57.333Z,992.79
2018-03-04T11:29:57.309Z,992.77
2018-03-04T11:30:57.299Z,992.73
2018-03-04T11:31:57.283Z,992.74
2018-03-04T11:32:57.269Z,992.68
2018-03-04T11:33:57.315Z,992.72
2018-03-04T11:34:57.243Z,992.64
2018-03-04T11:35:57.220Z,992.65
2018-03-04T11:36:57.201Z,992.60
2018-03-04T11:37:57.188Z,992.60
2018-03-04T11:38:57.173Z,992.61
2018-03-04T11:39:57.154Z,992.56
2018-03-04T11:40:57.138Z,992.56
2018-03-04T11:41:57.128Z,992.53
2018-03-04T11:42:57.109Z,992.54
2018-03-04T11:43:57.093Z,992.54
2018-03-04T11:44:57.080Z,992.53
2018-03-04T11:45:57.062Z,992.51
2018-03-04T11:46:57.049Z,992.50
2018-03-04T11:47:57.034Z,992.45
2018-03-04T11:48:57.017Z,992.52
2018-03-04T11:49:57.008Z,992.48
2018-03-04T11:50:56.986Z,992.48
2018-03-04T11:51:56.985Z,992.48
2018-03-04T11:52:56.962Z,992.52
2018-03-04T11:53:56.942Z,992.47
2018-03-04T11:54:56.927Z,992.47
2018-03-04T11:55:56.923Z,992.50
2018-03-04T11:56:56.905Z,992.52
2018-03-04T11:57:56.884Z,992.54
2018-03-04T11:58:56.868Z,992.53
2018-03-04T11:59:56.851Z,992.57
2018-03-04T12:00:56.834Z,992.59
2018-03-04T12:01:56.825Z,992.60
2018-03-04T12:02:56.817Z,992.59
2018-03-04T12:03:56.811Z,992.59
2018-03-04T12:04:56.780Z,992.63
2018-03-04T12:05:56.772Z,992.59
2018-03-04T12:06:56.753Z,992.63
2018-03-04T12:07:56.765Z,992.62
2018-03-04T12:08:56.731Z,992.61
2018-03-04T12:09:56.708Z,992.55
2018-03-04T12:10:56.696Z,992.53
2018-03-04T12:11:56.683Z,992.46
2018-03-04T12:12:56.666Z,992.46
2018-03-04T12:13:56.659Z,992.51
2018-03-04T12:14:56.641Z,992.48
2018-03-04T12:15:56.627Z,992.48
2018-03-04T12:16:56.616Z,992.50
2018-03-04T12:17:56.597Z,992.53
2018-03-04T12:18:56.590Z,992.52
2018-03-04T12:19:56.573Z,992.53
2018-03-04T12:20:56.557Z,992.44
2018-03-04T12:21:56.552Z,992.46
2018-03-04T12:22:56.549Z,992.44
2018-03-04T12:23:56.540Z,992.41
2018-03-04T12:24:56.506Z,992.37
2018-03-04T12:25:56.497Z,992.30
2018-03-04T12:26:56.483Z,992.32
2018-03-04T12:27:56.474Z,992.35